^^
Meteo Knjazevac Station Historical Data
Daily Summary for August 3, 2021 Units:  Metric    English   Both
Daily Weekly Monthly Yearly Custom
  High: Low: Average:
Temperature: 16.3 °C 14 °C 14.8 °C
Dew Point: 13.9 °C 12.6 °C 13.3 °C
Humidity: 93% 86% 91%
Wind Speed: 4.8km/h 0km/h 1.4km/h
Wind Gust: 11.3km/h - -
Wind- - SE
Pressure: 1017.2 hPa 1016.5 hPa -
Precipitation: 0 mm    
Historical Graphs
 
 
Tabular Data for August 3, 2021
Time Temperature Dew Point Pressure Wind Wind Speed Wind Gust Humidity Rainfall Rate (Hourly) solar Conditions
00:00 16.3 °C 13.9 °C 1016.8 hPa WNW 1.6 km/h 4.8 km/h 86% 0 mm 0 W/m2
00:10 16.2 °C 13.8 °C 1016.5 hPa Calm   3.2 km/h 86% 0 mm 0 W/m2
00:20 15.9 °C 13.9 °C 1016.8 hPa Calm   4.8 km/h 88% 0 mm 0 W/m2
00:30 15.8 °C 13.8 °C 1016.8 hPa Calm   3.2 km/h 88% 0 mm 0 W/m2
00:40 15.7 °C 13.7 °C 1016.5 hPa Calm   3.2 km/h 88% 0 mm 0 W/m2
00:50 15.7 °C 13.7 °C 1016.8 hPa Calm   3.2 km/h 88% 0 mm 0 W/m2
01:00 15.6 °C 13.8 °C 1016.5 hPa Calm   3.2 km/h 89% 0 mm 0 W/m2
01:10 15.6 °C 13.6 °C 1016.5 hPa Calm   3.2 km/h 88% 0 mm 0 W/m2
01:20 15.4 °C 13.6 °C 1016.8 hPa Calm   3.2 km/h 89% 0 mm 0 W/m2
01:30 15.3 °C 13.5 °C 1016.8 hPa NNW 1.6 km/h 3.2 km/h 89% 0 mm 0 W/m2
01:40 15.1 °C 13.3 °C 1016.5 hPa Calm   3.2 km/h 89% 0 mm 0 W/m2
01:50 15 °C 13.4 °C 1016.5 hPa Calm   3.2 km/h 90% 0 mm 0 W/m2
02:00 14.8 °C 13.2 °C 1016.5 hPa NNW 1.6 km/h 3.2 km/h 90% 0 mm 0 W/m2
02:10 14.8 °C 13.2 °C 1016.5 hPa NW 1.6 km/h 3.2 km/h 90% 0 mm 0 W/m2
02:20 14.6 °C 13 °C 1016.5 hPa Calm   3.2 km/h 90% 0 mm 0 W/m2
02:30 14.4 °C 12.8 °C 1016.5 hPa Calm   3.2 km/h 90% 0 mm 0 W/m2
02:40 14.3 °C 12.8 °C 1016.5 hPa North 3.2 km/h 3.2 km/h 91% 0 mm 0 W/m2
02:50 14.3 °C 12.8 °C 1016.5 hPa NE 3.2 km/h 6.4 km/h 91% 0 mm 0 W/m2
03:00 14.4 °C 12.9 °C 1016.5 hPa NE 3.2 km/h 6.4 km/h 91% 0 mm 0 W/m2
03:10 14.3 °C 12.8 °C 1016.5 hPa NNW 1.6 km/h 4.8 km/h 91% 0 mm 0 W/m2
03:20 14.4 °C 13.3 °C 1016.5 hPa NNE 1.6 km/h 4.8 km/h 93% 0 mm 0 W/m2
03:30 14.5 °C 13.4 °C 1016.5 hPa East 1.6 km/h 8 km/h 93% 0 mm 0 W/m2
03:40 14.3 °C 13.2 °C 1016.5 hPa Calm   3.2 km/h 93% 0 mm 0 W/m2
03:50 14.3 °C 13.2 °C 1016.5 hPa Calm   4.8 km/h 93% 0 mm 0 W/m2
04:00 14.2 °C 13.1 °C 1016.5 hPa WSW 1.6 km/h 3.2 km/h 93% 0 mm 0 W/m2
04:10 14 °C 12.6 °C 1016.8 hPa Calm   4.8 km/h 91% 0 mm 0 W/m2
04:20 14 °C 12.9 °C 1016.8 hPa NE 3.2 km/h 6.4 km/h 93% 0 mm 0 W/m2
04:30 14.1 °C 13 °C 1016.8 hPa NE 3.2 km/h 11.3 km/h 93% 0 mm 0 W/m2
04:40 14.3 °C 13.2 °C 1016.8 hPa NE 4.8 km/h 11.3 km/h 93% 0 mm 0 W/m2
04:50 14.4 °C 13.3 °C 1016.8 hPa NE 3.2 km/h 8 km/h 93% 0 mm 0 W/m2
05:00 14.5 °C 13.4 °C 1016.8 hPa NE 4.8 km/h 9.7 km/h 93% 0 mm 5 W/m2
05:10 14.4 °C 13.3 °C 1016.8 hPa NNE 1.6 km/h 6.4 km/h 93% 0 mm 8 W/m2
05:20 14.4 °C 13.3 °C 1016.8 hPa North 3.2 km/h 4.8 km/h 93% 0 mm 13 W/m2
05:30 14.5 °C 13.4 °C 1017.2 hPa NE 1.6 km/h 8 km/h 93% 0 mm 17 W/m2
05:40 14.5 °C 13.1 °C 1016.8 hPa NE 3.2 km/h 8 km/h 91% 0 mm 23 W/m2
Knjazevac, Serbia
Compliments of Weather Underground - 2 mb